עמוד ראשי
METAR-TAF:

METAR-TAF

שדות תעופה :

San Diego International Airport

סן דייגו, קליפורניה, ארצות הברית

קו רוחב: 32-44-01N, קו אורך: 117-10-59W, גובה: 4מטר

תצפית מזג אוויר נוכחית

הדו"ח נערך לפני 1 שעות ו 4דקות, בשעה 07:51 UTC
רוח 5קשר מכיוון דרום
טמפרטורת 19 צלסיוס
לחות 83%
לחץ 1009 hPa
ראות: 14.5קילומטר
מעונן בגובה 1000רגל

METAR: KSAN 160751Z 17005KT 9SM OVC010 19/16 A2980 RMK AO2 SLP090 T01890156 402330161 $

זמן: 01:55 (08:55 UTC)

תחזית

הדו"ח נערך לפני 17דקות, בשעה 08:38 UTC
תחזית בתוקף מ 16 ב 09 UTC עד 17 ב 12 UTC
רוח 7קשר מכיוון דרום
ראות: 10קילומטר
מעונן בגובה 1000רגל
מ 16 ב 1700UTC
רוח 12קשר מכיוון דרום עם משבים עד 18קשר
ראות: 10קילומטר
עננים פזורים בגובה 1500רגל
מ 16 ב 2100UTC
רוח 9קשר מכיוון דרום/דרום-מערב
ראות: 10קילומטר
שמיים נקיים
מ 17 ב 0200UTC
רוח 7קשר מכיוון דרום/דרום-מערב
ראות: 10קילומטר
עננים בינוניים בגובה 2000רגל

TAF: KSAN 160838Z 1609/1712 18007KT P6SM OVC010 FM161700 19012G18KT P6SM SCT015 FM162100 20009KT P6SM SKC FM170200 20007KT P6SM BKN020

תצפיות ותחזיות מזג אוויר לגבי יותר מ- 4,000 שדות תעופה ברחבי העולם. דוחות METAR ו- TAF.

התחנות הזמינות מסומנות בנקודות צהובות ואדומות על גבי המפה.

העבר את העכבר לנקודה הצבעונית על מנת לראות את שם התחנה.

לאחר מכן, לחץ כדי לראות את תוכן ואת תחזיות מזג האוויר.

כדי לשנות את המפה: לחץ על הכפתורים הירוקים עם הפלוס השחור כדי להתקרב; על הכפתור הירוק עם המקף כדי להתרחק; או בחיצים הירוקים למפות סמוכות.


METAR-TAF: